Time;durP1;ratioP1;P1;durP2;ratioP2;P2;SDS_P1;SDS_P2;PMS_P1;PMS_P2;Temp;Humidity;BMP_temperature;BMP_pressure;BME280_temperature;BME280_humidity;BME280_pressure;Samples;Min_cycle;Max_cycle;Signal;HPM_P1;HPM_P2
2021/01/22 00:00:56;;;;;;;39.10;21.83;;;8.90;99.90;;;;;;4995808;28;20045;-80
2021/01/22 00:03:22;;;;;;;15.27;8.45;;;8.80;99.90;;;;;;5012757;28;20030;-80
2021/01/22 00:05:49;;;;;;;96.45;56.08;;;8.80;99.90;;;;;;5015052;28;20022;-80
2021/01/22 00:08:15;;;;;;;52.10;30.90;;;8.90;99.90;;;;;;5001526;28;20042;-81
2021/01/22 00:10:41;;;;;;;6.53;4.07;;;8.80;99.90;;;;;;4995837;28;20499;-80
2021/01/22 00:13:08;;;;;;;62.47;33.28;;;8.80;99.90;;;;;;4995720;28;20035;-81
2021/01/22 00:15:34;;;;;;;52.35;29.35;;;8.90;99.90;;;;;;4995577;28;20045;-80
2021/01/22 00:18:00;;;;;;;14.65;7.68;;;8.90;99.90;;;;;;4995239;28;20034;-80
2021/01/22 00:20:26;;;;;;;52.30;30.10;;;8.90;99.90;;;;;;4994723;28;20482;-80
2021/01/22 00:22:52;;;;;;;16.52;10.05;;;8.80;99.90;;;;;;4995243;28;20038;-80
2021/01/22 00:25:19;;;;;;;10.40;6.03;;;8.90;99.90;;;;;;4994213;28;20034;-81
2021/01/22 00:27:45;;;;;;;5.32;2.97;;;9.00;99.90;;;;;;4995182;28;20042;-81
2021/01/22 00:30:12;;;;;;;8.00;3.70;;;9.10;99.90;;;;;;4995135;28;20034;-81
2021/01/22 00:32:38;;;;;;;9.75;4.10;;;9.20;99.90;;;;;;4995214;28;20046;-80
2021/01/22 00:35:06;;;;;;;13.52;7.80;;;9.20;99.90;;;;;;4995457;28;20061;-81
2021/01/22 00:37:32;;;;;;;14.43;8.50;;;9.10;99.90;;;;;;4995277;28;20027;-81
2021/01/22 00:39:58;;;;;;;12.57;7.13;;;9.10;99.90;;;;;;4995551;28;20035;-81
2021/01/22 00:42:24;;;;;;;8.40;4.20;;;9.10;99.90;;;;;;4994909;28;20388;-81
2021/01/22 00:44:51;;;;;;;8.50;3.10;;;9.10;99.90;;;;;;4991306;28;20399;-80
2021/01/22 00:47:17;;;;;;;15.50;7.47;;;9.20;99.90;;;;;;4976921;28;20039;-81
2021/01/22 00:49:43;;;;;;;16.95;7.85;;;9.30;99.90;;;;;;4994303;28;20404;-81
2021/01/22 00:52:09;;;;;;;7.95;4.30;;;9.30;99.90;;;;;;4994270;28;20038;-80
2021/01/22 00:54:36;;;;;;;15.88;9.13;;;9.40;99.90;;;;;;4995184;28;20034;-81
2021/01/22 00:57:20;;;;;;;11.93;6.63;;;9.50;99.90;;;;;;4994553;28;20049;-81
2021/01/22 00:59:48;;;;;;;6.35;3.28;;;9.60;99.90;;;;;;4970623;28;20496;-80
2021/01/22 01:02:15;;;;;;;15.52;7.63;;;9.70;99.90;;;;;;4994523;28;20034;-81
2021/01/22 01:04:41;;;;;;;7.28;4.80;;;9.70;99.90;;;;;;4994632;28;20037;-80
2021/01/22 01:07:13;;;;;;;3.40;1.63;;;9.70;99.90;;;;;;4986654;28;20046;-80
2021/01/22 01:09:43;;;;;;;6.72;3.40;;;9.90;99.90;;;;;;4961920;28;20050;-80
2021/01/22 01:12:28;;;;;;;2.88;1.33;;;9.80;99.90;;;;;;5010316;28;20037;-81
2021/01/22 01:15:26;;;;;;;5.45;1.63;;;9.80;99.90;;;;;;4994314;28;20038;-80
2021/01/22 01:17:53;;;;;;;3.92;1.70;;;9.80;99.90;;;;;;4995049;28;20043;-79
2021/01/22 01:20:19;;;;;;;1.67;0.70;;;9.80;99.90;;;;;;4993993;28;20045;-81
2021/01/22 01:22:45;;;;;;;3.85;1.60;;;9.90;99.90;;;;;;4994731;28;20038;-81
2021/01/22 01:25:12;;;;;;;1.73;0.60;;;9.70;99.90;;;;;;5013999;28;20037;-81
2021/01/22 01:27:38;;;;;;;2.00;0.82;;;9.70;99.90;;;;;;4996512;28;20031;-81
2021/01/22 01:30:05;;;;;;;5.60;1.13;;;9.70;99.90;;;;;;4973542;28;20090;-80
2021/01/22 01:32:31;;;;;;;2.70;0.75;;;10.00;99.90;;;;;;4993884;28;20498;-79
2021/01/22 01:34:58;;;;;;;4.07;1.83;;;10.00;99.90;;;;;;4993879;28;20037;-80
2021/01/22 01:37:24;;;;;;;0.98;0.45;;;9.90;99.90;;;;;;4979094;28;20035;-81
2021/01/22 01:39:50;;;;;;;1.63;0.40;;;10.00;99.90;;;;;;5005502;28;20034;-81
2021/01/22 01:42:16;;;;;;;3.78;2.13;;;9.90;99.90;;;;;;4993912;28;20030;-80
2021/01/22 01:44:42;;;;;;;1.55;0.70;;;9.80;99.90;;;;;;4994308;28;20038;-81
2021/01/22 01:47:09;;;;;;;2.55;0.60;;;9.80;99.90;;;;;;4993540;28;20034;-81
2021/01/22 01:49:35;;;;;;;1.88;0.40;;;9.80;99.90;;;;;;4993709;28;20046;-81
2021/01/22 01:52:02;;;;;;;5.97;3.05;;;9.80;99.90;;;;;;4976617;28;20057;-81
2021/01/22 01:54:29;;;;;;;2.22;1.20;;;9.70;99.90;;;;;;4993979;28;20034;-82
2021/01/22 01:56:55;;;;;;;4.38;1.33;;;9.60;99.90;;;;;;4993707;28;20034;-81
2021/01/22 01:59:21;;;;;;;1.95;0.90;;;9.50;99.90;;;;;;4993326;28;20103;-82
2021/01/22 02:01:49;;;;;;;5.57;1.73;;;9.40;99.90;;;;;;4993555;28;20452;-81
2021/01/22 02:04:16;;;;;;;2.47;1.00;;;9.30;99.90;;;;;;4993216;28;20356;-82
2021/01/22 02:06:42;;;;;;;2.38;0.50;;;9.30;99.90;;;;;;4993103;28;20034;-82
2021/01/22 02:09:08;;;;;;;3.67;1.38;;;9.20;99.90;;;;;;4993458;28;20031;-82
2021/01/22 02:11:35;;;;;;;2.47;1.10;;;9.30;99.90;;;;;;4976265;28;20060;-82
2021/01/22 02:14:02;;;;;;;2.38;0.93;;;9.20;99.90;;;;;;4992916;28;20056;-81
2021/01/22 02:16:31;;;;;;;2.38;0.88;;;9.20;99.90;;;;;;4993423;28;20030;-81
2021/01/22 02:18:58;;;;;;;2.50;1.00;;;9.20;99.90;;;;;;4993131;28;20034;-81
2021/01/22 02:21:31;;;;;;;1.73;0.90;;;9.20;99.90;;;;;;4992534;28;20042;-82
2021/01/22 02:24:15;;;;;;;4.07;1.35;;;9.20;99.90;;;;;;4993347;28;20449;-82
2021/01/22 02:26:57;;;;;;;2.03;1.02;;;9.20;99.90;;;;;;5008281;28;20030;-81
2021/01/22 02:29:26;;;;;;;1.98;0.80;;;9.30;99.90;;;;;;4995938;28;20031;-82
2021/01/22 02:31:54;;;;;;;3.05;0.80;;;9.30;99.90;;;;;;4993362;28;20054;-81
2021/01/22 02:34:24;;;;;;;3.75;1.00;;;9.30;99.90;;;;;;4975636;28;20041;-80
2021/01/22 02:36:55;;;;;;;1.80;0.73;;;9.30;99.90;;;;;;4993167;28;20041;-81
2021/01/22 02:39:26;;;;;;;2.22;0.88;;;9.50;99.90;;;;;;4992637;28;20042;-81
2021/01/22 02:41:57;;;;;;;1.92;0.88;;;9.60;99.90;;;;;;4993241;28;20034;-81
2021/01/22 02:44:23;;;;;;;2.25;1.02;;;9.70;99.90;;;;;;4992456;28;20037;-80
2021/01/22 02:46:49;;;;;;;3.42;1.70;;;9.60;99.90;;;;;;4992791;28;20491;-81
2021/01/22 02:49:16;;;;;;;4.35;0.70;;;9.60;99.90;;;;;;4992334;28;20030;-80
2021/01/22 02:51:44;;;;;;;1.83;0.93;;;9.80;99.90;;;;;;4992853;28;20049;-80
2021/01/22 02:54:10;;;;;;;2.88;0.85;;;9.90;99.90;;;;;;4992230;28;20387;-80
2021/01/22 02:56:56;;;;;;;4.80;1.08;;;10.00;99.90;;;;;;4992293;28;20042;-81
2021/01/22 02:59:55;;;;;;;1.42;0.70;;;10.00;99.90;;;;;;4992584;28;20041;-81
2021/01/22 03:02:50;;;;;;;2.05;0.70;;;10.00;99.90;;;;;;4992629;28;20034;-80
2021/01/22 03:05:20;;;;;;;2.55;0.73;;;10.10;99.90;;;;;;4992442;28;20050;-81
2021/01/22 03:07:52;;;;;;;5.40;0.90;;;10.20;99.90;;;;;;4992320;28;20038;-81
2021/01/22 03:10:20;;;;;;;1.63;0.60;;;10.20;99.90;;;;;;4992737;28;20042;-81
2021/01/22 03:12:48;;;;;;;3.22;0.73;;;10.20;99.90;;;;;;4993430;28;20035;-80
2021/01/22 03:15:16;;;;;;;2.03;0.50;;;10.20;99.90;;;;;;4992340;28;20046;-80
2021/01/22 03:17:43;;;;;;;2.70;0.80;;;10.40;99.90;;;;;;4992815;28;20419;-81
2021/01/22 03:20:14;;;;;;;2.45;0.90;;;10.30;99.90;;;;;;4992202;28;20034;-81
2021/01/22 03:22:40;;;;;;;1.70;0.68;;;10.20;99.90;;;;;;4992622;28;20403;-81
2021/01/22 03:25:10;;;;;;;2.80;0.93;;;10.20;99.90;;;;;;4991259;28;20047;-80
2021/01/22 03:27:36;;;;;;;3.35;0.63;;;10.20;99.90;;;;;;4992753;28;20034;-81
2021/01/22 03:30:05;;;;;;;2.90;0.70;;;10.20;99.90;;;;;;4992218;28;20457;-81
2021/01/22 03:32:31;;;;;;;2.25;0.77;;;10.30;99.90;;;;;;4992341;28;20047;-80
2021/01/22 03:34:57;;;;;;;3.22;0.82;;;10.20;99.90;;;;;;4992556;28;20038;-81
2021/01/22 03:37:23;;;;;;;3.17;0.93;;;10.30;99.90;;;;;;4992417;28;20034;-80
2021/01/22 03:39:49;;;;;;;2.45;0.52;;;10.40;99.90;;;;;;4990419;28;20049;-81
2021/01/22 03:42:16;;;;;;;2.58;0.90;;;10.40;99.90;;;;;;4992446;28;20372;-81
2021/01/22 03:44:42;;;;;;;2.58;0.70;;;10.40;99.90;;;;;;4992693;28;20026;-82
2021/01/22 03:47:08;;;;;;;3.50;0.90;;;10.30;99.90;;;;;;4989087;28;20042;-81
2021/01/22 03:49:34;;;;;;;2.92;0.50;;;10.30;99.90;;;;;;4992543;28;20527;-82
2021/01/22 03:52:01;;;;;;;3.28;0.80;;;10.30;99.90;;;;;;4990468;28;20057;-82
2021/01/22 03:54:27;;;;;;;2.47;0.70;;;10.30;99.90;;;;;;4994492;28;20046;-82
2021/01/22 03:56:54;;;;;;;3.38;1.00;;;10.30;99.90;;;;;;4996077;28;20033;-81
2021/01/22 03:59:20;;;;;;;2.08;0.60;;;10.30;99.90;;;;;;4979027;28;20037;-82
2021/01/22 04:01:47;;;;;;;8.13;1.08;;;10.40;99.90;;;;;;4995780;28;20049;-82
2021/01/22 04:04:13;;;;;;;2.20;0.70;;;10.40;99.90;;;;;;5003686;28;20464;-82
2021/01/22 04:06:39;;;;;;;5.18;1.35;;;10.30;99.90;;;;;;5010450;28;20026;-81
2021/01/22 04:09:06;;;;;;;2.65;0.90;;;10.40;99.90;;;;;;4994852;28;20051;-81
2021/01/22 04:11:32;;;;;;;4.07;0.90;;;10.40;99.90;;;;;;4978064;28;20050;-83
2021/01/22 04:13:58;;;;;;;6.88;1.48;;;10.40;99.90;;;;;;4995460;28;20361;-81
2021/01/22 04:16:25;;;;;;;4.00;0.90;;;10.40;99.90;;;;;;4982614;28;20224;-81
2021/01/22 04:18:51;;;;;;;1.77;0.70;;;10.40;99.90;;;;;;4995444;28;20037;-81
2021/01/22 04:21:17;;;;;;;4.88;0.85;;;10.30;99.90;;;;;;4994958;28;20030;-82
2021/01/22 04:23:43;;;;;;;4.60;0.60;;;10.30;99.90;;;;;;4995472;28;20026;-82
2021/01/22 04:26:09;;;;;;;7.80;0.90;;;10.20;99.90;;;;;;4988097;28;20039;-83
2021/01/22 04:28:35;;;;;;;4.25;1.45;;;10.20;99.90;;;;;;4995051;28;20034;-83
2021/01/22 04:31:02;;;;;;;6.93;0.88;;;10.30;99.90;;;;;;4995204;28;20082;-82
2021/01/22 04:33:28;;;;;;;2.92;1.50;;;10.40;99.90;;;;;;4994709;28;20045;-82
2021/01/22 04:35:54;;;;;;;3.55;0.90;;;10.30;99.90;;;;;;4995383;28;20030;-82
2021/01/22 04:38:20;;;;;;;4.38;0.90;;;10.30;99.90;;;;;;4994797;28;20026;-81
2021/01/22 04:40:48;;;;;;;4.63;0.90;;;10.30;99.90;;;;;;4995148;28;20365;-82
2021/01/22 04:43:15;;;;;;;5.13;0.68;;;10.30;99.90;;;;;;4994614;28;20034;-81
2021/01/22 04:45:41;;;;;;;3.05;1.00;;;10.30;99.90;;;;;;4994830;28;20035;-82
2021/01/22 04:48:08;;;;;;;2.53;0.75;;;10.20;99.90;;;;;;4994965;28;20027;-81
2021/01/22 04:50:38;;;;;;;4.53;0.90;;;10.10;99.90;;;;;;4994939;28;20101;-81
2021/01/22 04:53:09;;;;;;;3.30;1.00;;;10.10;99.90;;;;;;4994574;28;20081;-80
2021/01/22 04:55:39;;;;;;;6.43;0.90;;;10.10;99.90;;;;;;4994267;28;20412;-81
2021/01/22 04:58:07;;;;;;;1.85;0.82;;;10.10;99.90;;;;;;4994635;28;20034;-80
2021/01/22 05:00:34;;;;;;;2.78;0.60;;;10.10;99.90;;;;;;4995169;28;20034;-80
2021/01/22 05:03:02;;;;;;;4.78;0.77;;;10.10;99.90;;;;;;4994679;28;20038;-80
2021/01/22 05:05:28;;;;;;;2.15;1.00;;;10.00;99.90;;;;;;4993987;28;20039;-80
2021/01/22 05:07:54;;;;;;;4.05;1.23;;;10.00;99.90;;;;;;4994874;28;20037;-82
2021/01/22 05:10:21;;;;;;;2.28;0.80;;;9.90;99.90;;;;;;4985851;28;20046;-81
2021/01/22 05:12:47;;;;;;;4.88;1.33;;;9.90;99.90;;;;;;5002781;28;20011;-81
2021/01/22 05:15:24;;;;;;;6.03;0.95;;;9.80;99.90;;;;;;4984719;28;20034;-81
2021/01/22 05:17:57;;;;;;;4.18;0.85;;;9.80;99.90;;;;;;4994818;28;20026;-82
2021/01/22 05:20:45;;;;;;;3.75;0.88;;;9.70;99.90;;;;;;4994353;28;20049;-82
2021/01/22 05:23:11;;;;;;;3.97;0.98;;;9.70;99.90;;;;;;4994470;28;20049;-82
2021/01/22 05:25:57;;;;;;;2.97;0.75;;;9.80;99.90;;;;;;4976484;28;20042;-83
2021/01/22 05:28:38;;;;;;;5.60;0.88;;;9.70;99.90;;;;;;4994021;28;20034;-83
2021/01/22 05:31:07;;;;;;;1.98;0.63;;;9.70;99.90;;;;;;5010483;28;20046;-82
2021/01/22 05:33:35;;;;;;;2.97;0.82;;;9.80;99.90;;;;;;4994042;28;20126;-83
2021/01/22 05:36:24;;;;;;;2.83;0.60;;;9.80;99.90;;;;;;4993861;28;20038;-83
2021/01/22 05:38:55;;;;;;;21.15;10.93;;;9.90;99.90;;;;;;4982802;28;20523;-83
2021/01/22 05:41:21;;;;;;;64.50;33.33;;;9.90;99.90;;;;;;4993914;28;20141;-83
2021/01/22 05:43:50;;;;;;;30.65;14.43;;;10.00;99.90;;;;;;4976478;28;20383;-83
2021/01/22 05:46:20;;;;;;;90.55;40.28;;;9.90;99.90;;;;;;4994099;28;20030;-83
2021/01/22 05:48:46;;;;;;;20.48;10.30;;;9.90;99.90;;;;;;4993957;28;20033;-82
2021/01/22 05:51:13;;;;;;;19.40;8.25;;;10.00;99.90;;;;;;4992972;28;20047;-82
2021/01/22 05:53:47;;;;;;;22.90;8.38;;;10.00;99.90;;;;;;4994444;28;20076;-82
2021/01/22 05:56:18;;;;;;;88.43;35.25;;;10.10;99.90;;;;;;5003229;28;20124;-81
2021/01/22 05:58:46;;;;;;;49.50;20.50;;;10.00;99.90;;;;;;4993621;28;20041;-82
2021/01/22 06:01:13;;;;;;;18.85;7.90;;;9.90;99.90;;;;;;4992746;28;20039;-81
2021/01/22 06:03:45;;;;;;;115.38;48.60;;;9.90;99.90;;;;;;4993394;28;20456;-82
2021/01/22 06:06:12;;;;;;;27.40;11.70;;;9.80;99.90;;;;;;4994536;28;20036;-81
2021/01/22 06:08:58;;;;;;;82.05;32.25;;;9.90;99.90;;;;;;4978906;28;20046;-79
2021/01/22 06:11:30;;;;;;;38.50;16.25;;;9.80;99.90;;;;;;4994674;28;20053;-80
2021/01/22 06:13:59;;;;;;;23.30;8.75;;;9.80;99.90;;;;;;4976829;28;20042;-81
2021/01/22 06:16:26;;;;;;;162.52;61.25;;;9.80;99.90;;;;;;4992078;28;20356;-81
2021/01/22 06:18:57;;;;;;;71.38;29.08;;;9.70;99.90;;;;;;4993740;28;20030;-81
2021/01/22 06:21:25;;;;;;;34.45;13.38;;;9.80;99.90;;;;;;4998040;28;20037;-82
2021/01/22 06:23:52;;;;;;;84.85;32.47;;;9.80;99.90;;;;;;4968994;28;20042;-82
2021/01/22 06:26:20;;;;;;;67.03;28.73;;;9.80;99.90;;;;;;4992427;28;20483;-81
2021/01/22 06:28:50;;;;;;;66.93;29.05;;;9.80;99.90;;;;;;4992855;28;20478;-80
2021/01/22 06:31:18;;;;;;;80.50;35.50;;;9.90;99.90;;;;;;4992521;28;20101;-80
2021/01/22 06:33:48;;;;;;;56.03;21.88;;;9.90;99.90;;;;;;4993297;28;20030;-82
2021/01/22 06:36:16;;;;;;;31.30;12.75;;;9.90;99.90;;;;;;4990055;28;20475;-79
2021/01/22 06:38:42;;;;;;;156.93;69.50;;;9.90;99.90;;;;;;4992263;28;20033;-81
2021/01/22 06:41:09;;;;;;;112.70;47.40;;;9.90;99.90;;;;;;4992551;28;20053;-80
2021/01/22 06:43:37;;;;;;;60.00;27.98;;;9.90;99.90;;;;;;4977487;28;20375;-81
2021/01/22 06:46:07;;;;;;;155.32;78.35;;;10.00;99.90;;;;;;4993668;28;20030;-82
2021/01/22 06:49:00;;;;;;;41.97;19.40;;;9.90;99.90;;;;;;4996662;28;20030;-80
2021/01/22 06:51:31;;;;;;;14.63;7.75;;;9.90;99.90;;;;;;4992434;28;20042;-80
2021/01/22 06:54:03;;;;;;;;;;;10.00;99.90;;;;;;4977387;28;20383;-79
2021/01/22 06:56:30;;;;;;;65.22;34.13;;;9.90;99.90;;;;;;4992295;28;20003;-81
2021/01/22 06:59:16;;;;;;;19.23;9.02;;;9.80;99.90;;;;;;5001748;28;20052;-81
2021/01/22 07:01:42;;;;;;;10.60;5.57;;;9.80;99.90;;;;;;4996139;28;20042;-80
2021/01/22 07:04:09;;;;;;;17.75;10.35;;;9.80;99.90;;;;;;4995478;28;20030;-81
2021/01/22 07:06:37;;;;;;;27.95;15.98;;;9.80;99.90;;;;;;4992976;28;20089;-82
2021/01/22 07:09:04;;;;;;;17.35;7.55;;;9.80;99.90;;;;;;4992826;28;20034;-83
2021/01/22 07:11:49;;;;;;;10.18;5.43;;;9.80;99.90;;;;;;5002848;28;20387;-78
2021/01/22 07:14:36;;;;;;;14.48;8.30;;;9.80;99.90;;;;;;5002093;28;20065;-79
2021/01/22 07:17:21;;;;;;;5.25;2.25;;;9.70;99.90;;;;;;4995435;28;20030;-79
2021/01/22 07:20:09;;;;;;;5.82;2.17;;;9.60;99.90;;;;;;4992715;28;20031;-78
2021/01/22 07:22:49;;;;;;;3.45;1.27;;;9.50;99.90;;;;;;4991442;28;20050;-79
2021/01/22 07:25:29;;;;;;;9.05;3.35;;;9.50;99.90;;;;;;4992131;28;20400;-79
2021/01/22 07:27:55;;;;;;;2.25;1.02;;;9.40;99.90;;;;;;4993081;28;20041;-80
2021/01/22 07:30:22;;;;;;;3.60;1.70;;;9.30;99.90;;;;;;5008868;28;20379;-78
2021/01/22 07:32:50;;;;;;;17.48;7.95;;;9.40;99.90;;;;;;4996926;28;20047;-79
2021/01/22 07:35:22;;;;;;;8.85;3.25;;;9.30;99.90;;;;;;4995936;28;20039;-78
2021/01/22 07:37:49;;;;;;;12.13;5.90;;;9.40;99.90;;;;;;4996152;28;20037;-77
2021/01/22 07:40:16;;;;;;;25.95;12.00;;;9.30;99.90;;;;;;4995706;28;20034;-78
2021/01/22 07:42:43;;;;;;;5.88;2.30;;;9.20;99.90;;;;;;4996128;28;20361;-77
2021/01/22 07:45:15;;;;;;;6.35;2.60;;;9.20;99.90;;;;;;4995843;28;20037;-76
2021/01/22 07:47:43;;;;;;;13.32;5.70;;;9.10;99.90;;;;;;5003285;28;20026;-77
2021/01/22 07:50:17;;;;;;;2.28;0.98;;;9.10;99.90;;;;;;5010624;28;20482;-77
2021/01/22 07:52:49;;;;;;;8.40;3.95;;;9.00;99.90;;;;;;4999850;28;20046;-77
2021/01/22 07:55:22;;;;;;;7.85;4.88;;;9.00;99.90;;;;;;4994868;28;20050;-75
2021/01/22 07:58:05;;;;;;;6.55;2.17;;;8.90;99.90;;;;;;4998163;28;20038;-74
2021/01/22 08:00:38;;;;;;;10.30;3.13;;;8.90;99.90;;;;;;5005042;28;21160;-74
2021/01/22 08:03:05;;;;;;;9.57;5.18;;;8.90;99.90;;;;;;5003918;28;20491;-78
2021/01/22 08:05:33;;;;;;;9.55;3.50;;;8.80;99.90;;;;;;4982450;28;20026;-78
2021/01/22 08:08:00;;;;;;;6.47;2.10;;;8.80;99.90;;;;;;4997603;28;20030;-78
2021/01/22 08:10:31;;;;;;;7.43;3.88;;;8.80;99.90;;;;;;5007903;28;20038;-77
2021/01/22 08:12:59;;;;;;;3.88;1.88;;;8.80;99.90;;;;;;4994270;28;20381;-79
2021/01/22 08:15:27;;;;;;;5.32;2.17;;;8.80;99.90;;;;;;4977666;28;20046;-79
2021/01/22 08:17:53;;;;;;;5.80;2.90;;;8.90;99.90;;;;;;4993905;28;20388;-80
2021/01/22 08:20:21;;;;;;;4.65;1.17;;;8.90;99.90;;;;;;4997460;28;20038;-81
2021/01/22 08:22:57;;;;;;;5.00;1.83;;;9.00;99.90;;;;;;4995240;28;20499;-78
2021/01/22 08:25:35;;;;;;;5.30;1.98;;;9.00;99.90;;;;;;4994321;28;20050;-79
2021/01/22 08:28:04;;;;;;;5.90;1.90;;;8.90;99.90;;;;;;5009048;28;20030;-79
2021/01/22 08:30:31;;;;;;;5.70;2.30;;;8.90;99.90;;;;;;4995195;28;20041;-78
2021/01/22 08:32:58;;;;;;;5.93;2.60;;;9.00;99.90;;;;;;4993581;28;20050;-78
2021/01/22 08:35:25;;;;;;;5.57;1.10;;;9.00;99.90;;;;;;4994420;28;20030;-78
2021/01/22 08:37:53;;;;;;;5.43;1.80;;;9.00;99.90;;;;;;4994704;28;20033;-78
2021/01/22 08:40:20;;;;;;;3.67;1.08;;;9.10;99.90;;;;;;4999213;28;20045;-78
2021/01/22 08:43:01;;;;;;;4.90;1.00;;;9.10;99.90;;;;;;4993937;28;20042;-80
2021/01/22 08:45:28;;;;;;;3.95;1.00;;;9.10;99.90;;;;;;4994612;28;20038;-79
2021/01/22 08:47:55;;;;;;;3.92;1.20;;;9.20;99.90;;;;;;5007003;28;20035;-80
2021/01/22 08:50:21;;;;;;;4.90;1.00;;;9.20;99.90;;;;;;4994328;28;20144;-78
2021/01/22 08:53:05;;;;;;;8.43;1.88;;;9.20;99.90;;;;;;4994177;28;20030;-78
2021/01/22 08:55:32;;;;;;;4.82;1.70;;;9.20;99.90;;;;;;5002927;28;20030;-77
2021/01/22 08:58:16;;;;;;;4.72;1.63;;;9.30;99.90;;;;;;5003380;28;20384;-78
2021/01/22 09:00:42;;;;;;;2.88;0.50;;;9.20;99.90;;;;;;4995306;28;20026;-77
2021/01/22 09:03:22;;;;;;;5.93;0.85;;;8.20;99.90;;;;;;4993610;28;20034;-77
2021/01/22 09:05:52;;;;;;;1.52;0.20;;;7.00;99.90;;;;;;4993944;28;20038;-77
2021/01/22 09:08:20;;;;;;;0.45;0.25;;;6.50;99.90;;;;;;4993570;28;20041;-77
2021/01/22 09:10:47;;;;;;;1.80;0.50;;;6.30;99.90;;;;;;4993968;28;20037;-77
2021/01/22 09:13:19;;;;;;;1.00;0.60;;;6.20;99.90;;;;;;4993000;28;20069;-77
2021/01/22 09:15:46;;;;;;;1.08;0.30;;;6.20;99.90;;;;;;4994084;28;20030;-77
2021/01/22 09:18:25;;;;;;;2.85;0.30;;;5.90;99.90;;;;;;4994130;28;20053;-76
2021/01/22 09:20:58;;;;;;;1.40;0.38;;;5.60;99.90;;;;;;4996408;28;20034;-77
2021/01/22 09:23:25;;;;;;;0.88;0.40;;;5.50;99.90;;;;;;5010549;28;20387;-77
2021/01/22 09:25:51;;;;;;;1.58;0.30;;;5.40;99.90;;;;;;4994236;28;20065;-77
2021/01/22 09:28:18;;;;;;;2.28;0.40;;;5.30;99.90;;;;;;4991248;28;20050;-75
2021/01/22 09:30:44;;;;;;;2.22;0.40;;;5.30;99.90;;;;;;4993875;28;20034;-76
2021/01/22 09:33:10;;;;;;;0.63;0.40;;;5.30;99.90;;;;;;4998450;28;20387;-76
2021/01/22 09:35:36;;;;;;;0.70;0.38;;;5.30;99.90;;;;;;5010914;28;20033;-75
2021/01/22 09:38:03;;;;;;;2.10;0.55;;;5.30;99.90;;;;;;4996166;28;20031;-76
2021/01/22 09:40:29;;;;;;;3.35;1.58;;;5.30;99.90;;;;;;4993267;28;20034;-77
2021/01/22 09:42:56;;;;;;;1.73;0.90;;;5.30;99.90;;;;;;4993509;28;20404;-76
2021/01/22 09:45:22;;;;;;;0.82;0.50;;;5.30;99.90;;;;;;4993257;28;20383;-75
2021/01/22 09:47:49;;;;;;;1.00;0.55;;;5.30;99.90;;;;;;4993551;28;20022;-77
2021/01/22 09:50:19;;;;;;;1.13;0.55;;;5.20;99.90;;;;;;4993330;28;20080;-75
2021/01/22 09:52:46;;;;;;;2.75;1.10;;;5.10;99.90;;;;;;4993077;28;20038;-76
2021/01/22 09:55:18;;;;;;;2.33;0.50;;;5.10;99.90;;;;;;5006812;28;20041;-75
2021/01/22 09:57:44;;;;;;;2.95;1.40;;;5.00;99.90;;;;;;4994713;28;20033;-76
2021/01/22 10:00:14;;;;;;;1.98;0.85;;;5.00;99.90;;;;;;4993232;28;20030;-75
2021/01/22 10:02:41;;;;;;;2.20;0.53;;;4.80;99.90;;;;;;4992412;28;20054;-76
2021/01/22 10:05:08;;;;;;;0.88;0.30;;;4.70;99.90;;;;;;4993191;28;20023;-76
2021/01/22 10:07:35;;;;;;;0.88;0.40;;;4.70;99.90;;;;;;4992833;28;20460;-75
2021/01/22 10:10:06;;;;;;;0.95;0.30;;;4.70;99.90;;;;;;5007619;28;20030;-76
2021/01/22 10:12:32;;;;;;;1.90;0.30;;;4.60;99.90;;;;;;4999274;28;20384;-76
2021/01/22 10:14:59;;;;;;;0.43;0.30;;;4.50;99.90;;;;;;4992037;28;20034;-74
2021/01/22 10:17:25;;;;;;;0.77;0.30;;;4.50;99.90;;;;;;4992272;28;20030;-75
2021/01/22 10:19:51;;;;;;;1.60;0.25;;;4.40;99.90;;;;;;4992932;28;20129;-75
2021/01/22 10:22:17;;;;;;;1.67;0.40;;;4.40;99.90;;;;;;4992128;28;20037;-76
2021/01/22 10:24:44;;;;;;;0.40;0.40;;;4.40;99.90;;;;;;4992164;28;20030;-75
2021/01/22 10:27:10;;;;;;;1.73;0.25;;;4.40;99.90;;;;;;4993476;28;20037;-74
2021/01/22 10:29:37;;;;;;;1.23;0.30;;;4.40;99.90;;;;;;4992825;28;20038;-75
2021/01/22 10:32:03;;;;;;;0.30;0.20;;;4.40;99.90;;;;;;4992401;28;20046;-75
2021/01/22 10:34:30;;;;;;;3.50;0.43;;;4.30;99.90;;;;;;4992493;28;20019;-75
2021/01/22 10:36:56;;;;;;;0.75;0.30;;;4.30;99.90;;;;;;4992888;28;20038;-75
2021/01/22 10:39:22;;;;;;;3.22;0.80;;;4.30;99.90;;;;;;4992069;28;20031;-75
2021/01/22 10:41:48;;;;;;;1.77;0.65;;;4.30;99.90;;;;;;4992632;28;20030;-78
2021/01/22 10:44:15;;;;;;;1.13;0.60;;;4.40;99.90;;;;;;4992981;28;20031;-76
2021/01/22 10:46:42;;;;;;;0.95;0.43;;;4.40;99.90;;;;;;4992267;28;20026;-75
2021/01/22 10:49:08;;;;;;;0.80;0.40;;;4.30;99.90;;;;;;4993838;28;20483;-76
2021/01/22 10:51:35;;;;;;;1.95;0.70;;;4.40;99.90;;;;;;4986853;28;20045;-77
2021/01/22 10:54:01;;;;;;;1.77;0.65;;;4.40;99.90;;;;;;4999265;28;20035;-76
2021/01/22 10:56:27;;;;;;;2.03;1.02;;;4.30;99.90;;;;;;4997748;28;20483;-76
2021/01/22 10:58:54;;;;;;;1.45;0.50;;;4.40;99.90;;;;;;4995648;28;20498;-78
2021/01/22 11:01:20;;;;;;;1.27;0.60;;;4.40;99.90;;;;;;4990136;28;20388;-76
2021/01/22 11:03:46;;;;;;;1.38;0.50;;;4.20;99.90;;;;;;4992436;28;20475;-76
2021/01/22 11:06:13;;;;;;;1.02;0.50;;;4.30;99.90;;;;;;4995778;28;20472;-79
2021/01/22 11:08:39;;;;;;;1.20;0.52;;;4.40;99.90;;;;;;5002951;28;20039;-77
2021/01/22 11:11:05;;;;;;;1.38;0.47;;;4.40;99.90;;;;;;5011415;28;20052;-79
2021/01/22 11:13:31;;;;;;;0.82;0.43;;;4.40;99.90;;;;;;5010389;28;20042;-79
2021/01/22 11:15:58;;;;;;;0.75;0.40;;;4.40;99.90;;;;;;5008251;28;20034;-78
2021/01/22 11:18:24;;;;;;;1.52;0.70;;;4.40;99.90;;;;;;5003066;28;20050;-77
2021/01/22 11:20:50;;;;;;;0.77;0.30;;;4.40;99.90;;;;;;4981983;28;20065;-78
2021/01/22 11:23:17;;;;;;;2.50;0.77;;;4.40;99.90;;;;;;5003552;28;20049;-77
2021/01/22 11:25:44;;;;;;;1.33;0.60;;;4.30;99.90;;;;;;5004511;28;20057;-77
2021/01/22 11:28:11;;;;;;;1.50;0.40;;;4.30;99.90;;;;;;5005475;28;20030;-77
2021/01/22 11:30:37;;;;;;;1.13;0.60;;;4.20;99.90;;;;;;4995141;28;20030;-77
2021/01/22 11:33:03;;;;;;;1.42;0.50;;;4.20;99.90;;;;;;4996116;28;20042;-77
2021/01/22 11:35:33;;;;;;;1.33;0.40;;;4.20;99.90;;;;;;4995468;28;20388;-76
2021/01/22 11:38:00;;;;;;;0.60;0.30;;;4.20;99.90;;;;;;4996681;28;20038;-76
2021/01/22 11:40:26;;;;;;;0.52;0.30;;;4.20;99.90;;;;;;4995177;28;20045;-76
2021/01/22 11:42:52;;;;;;;1.60;0.40;;;4.20;99.90;;;;;;4994171;28;20054;-76
2021/01/22 11:45:19;;;;;;;1.95;0.65;;;4.20;99.90;;;;;;4995502;28;20037;-77
2021/01/22 11:47:45;;;;;;;2.42;0.70;;;4.30;99.90;;;;;;4995102;28;20586;-76
2021/01/22 11:50:13;;;;;;;0.90;0.40;;;4.30;99.90;;;;;;4995974;28;20045;-76
2021/01/22 11:52:39;;;;;;;1.38;0.32;;;4.20;99.90;;;;;;4993786;28;20404;-76
2021/01/22 11:55:06;;;;;;;0.75;0.38;;;4.20;99.90;;;;;;4995406;28;20038;-76
2021/01/22 11:57:33;;;;;;;2.72;0.90;;;4.10;99.90;;;;;;4995382;28;20033;-76
2021/01/22 11:59:59;;;;;;;1.92;0.35;;;4.00;99.90;;;;;;4995544;28;20038;-75
2021/01/22 12:02:25;;;;;;;1.95;0.52;;;4.00;99.90;;;;;;4995486;28;20042;-77
2021/01/22 12:04:51;;;;;;;2.63;1.00;;;4.00;99.90;;;;;;4995696;28;20026;-75
2021/01/22 12:07:18;;;;;;;0.70;0.43;;;4.10;99.90;;;;;;4978155;28;20034;-76
2021/01/22 12:09:44;;;;;;;2.20;0.65;;;4.00;99.90;;;;;;4994984;28;20034;-75
2021/01/22 12:12:10;;;;;;;1.70;0.40;;;4.00;99.90;;;;;;4995504;28;20041;-75
2021/01/22 12:14:37;;;;;;;1.10;0.40;;;3.90;99.90;;;;;;4995160;28;20038;-75
2021/01/22 12:17:03;;;;;;;1.77;0.65;;;3.90;99.90;;;;;;4993991;28;20022;-76
2021/01/22 12:19:29;;;;;;;1.42;0.50;;;3.90;99.90;;;;;;4995129;28;20041;-75
2021/01/22 12:21:56;;;;;;;1.13;0.80;;;3.90;99.90;;;;;;4994483;28;20051;-74
2021/01/22 12:24:22;;;;;;;0.80;0.40;;;3.80;99.90;;;;;;4997177;28;20022;-74
2021/01/22 12:26:48;;;;;;;1.77;0.60;;;3.80;99.90;;;;;;4997960;28;20030;-74
2021/01/22 12:29:15;;;;;;;0.85;0.45;;;3.90;99.90;;;;;;4993265;28;20038;-74
2021/01/22 12:31:41;;;;;;;0.57;0.32;;;3.80;99.90;;;;;;4994222;28;20669;-75
2021/01/22 12:34:07;;;;;;;0.63;0.30;;;3.80;99.90;;;;;;4995055;28;20058;-74
2021/01/22 12:36:34;;;;;;;0.60;0.30;;;3.90;99.90;;;;;;5003688;28;20041;-75
2021/01/22 12:39:02;;;;;;;0.63;0.20;;;3.80;99.90;;;;;;4999380;28;20367;-74
2021/01/22 12:41:28;;;;;;;2.17;0.30;;;3.80;99.90;;;;;;4998348;28;20367;-75
2021/01/22 12:43:54;;;;;;;0.50;0.30;;;3.80;99.90;;;;;;5009914;28;20034;-75
2021/01/22 12:46:21;;;;;;;1.27;0.40;;;3.80;99.90;;;;;;4994750;28;20037;-75
2021/01/22 12:48:47;;;;;;;1.98;0.68;;;3.90;99.90;;;;;;5008914;28;20026;-74
2021/01/22 12:51:13;;;;;;;0.20;0.20;;;3.80;99.90;;;;;;5001519;28;20035;-75
2021/01/22 12:53:39;;;;;;;0.85;0.20;;;3.80;99.90;;;;;;4994240;28;20069;-75
2021/01/22 12:56:06;;;;;;;0.80;0.30;;;3.80;99.90;;;;;;4994485;28;20041;-74
2021/01/22 12:58:32;;;;;;;0.93;0.30;;;3.80;99.90;;;;;;4993054;28;20054;-75
2021/01/22 13:00:58;;;;;;;0.40;0.20;;;3.80;99.90;;;;;;4979195;28;20031;-75